createdAt,value
2018-03-27T00:01:03.970Z,38.80
2018-03-27T00:03:32.960Z,39.50
2018-03-27T00:06:01.228Z,38.90
2018-03-27T00:08:29.405Z,39.00
2018-03-27T00:10:57.577Z,39.00
2018-03-27T00:13:25.860Z,39.00
2018-03-27T00:15:54.022Z,39.00
2018-03-27T00:18:22.310Z,39.00
2018-03-27T00:20:50.476Z,38.90
2018-03-27T00:23:18.649Z,39.00
2018-03-27T00:25:47.545Z,39.60
2018-03-27T00:28:28.412Z,39.00
2018-03-27T00:31:09.290Z,39.00
2018-03-27T00:33:49.934Z,39.40
2018-03-27T00:36:29.894Z,39.00
2018-03-27T00:39:10.673Z,39.20
2018-03-27T00:44:51.422Z,39.50
2018-03-27T00:47:19.354Z,39.50
2018-03-27T00:49:47.354Z,40.40
2018-03-27T00:52:15.340Z,40.40
2018-03-27T00:54:43.313Z,40.60
2018-03-27T00:57:11.337Z,40.70
2018-03-27T00:59:39.311Z,40.80
2018-03-27T01:02:07.245Z,41.10
2018-03-27T01:04:35.262Z,41.20
2018-03-27T01:07:03.207Z,41.30
2018-03-27T01:09:31.180Z,41.40
2018-03-27T01:11:59.139Z,41.50
2018-03-27T01:14:27.884Z,41.60
2018-03-27T01:16:55.834Z,41.50
2018-03-27T01:19:23.885Z,41.50
2018-03-27T01:21:51.858Z,41.50
2018-03-27T01:24:19.804Z,41.50
2018-03-27T01:26:47.763Z,41.50
2018-03-27T01:29:16.603Z,41.50
2018-03-27T01:31:44.626Z,41.50
2018-03-27T01:34:13.346Z,41.50
2018-03-27T01:36:41.362Z,41.40
2018-03-27T01:39:09.273Z,41.40
2018-03-27T01:41:37.183Z,41.90
2018-03-27T01:44:05.162Z,41.20
2018-03-27T01:46:33.229Z,41.10
2018-03-27T01:49:01.176Z,41.00
2018-03-27T01:51:29.177Z,41.00
2018-03-27T01:53:57.177Z,40.90
2018-03-27T01:56:25.187Z,40.90
2018-03-27T01:58:53.161Z,40.90
2018-03-27T02:01:21.182Z,41.00
2018-03-27T02:03:49.138Z,40.90
2018-03-27T02:06:17.862Z,40.90
2018-03-27T02:08:45.823Z,40.80
2018-03-27T02:11:19.349Z,40.80
2018-03-27T02:13:53.010Z,41.00
2018-03-27T02:16:26.769Z,40.90
2018-03-27T02:19:00.348Z,41.10
2018-03-27T02:21:27.839Z,41.10
2018-03-27T02:23:56.782Z,41.00
2018-03-27T02:26:24.697Z,41.10
2018-03-27T02:28:52.690Z,41.10
2018-03-27T02:31:20.653Z,41.80
2018-03-27T02:33:49.378Z,41.30
2018-03-27T02:36:17.316Z,41.40
2018-03-27T02:38:45.249Z,41.50
2018-03-27T02:41:13.270Z,41.50
2018-03-27T02:43:41.251Z,41.50
2018-03-27T02:46:09.325Z,41.40
2018-03-27T02:48:37.353Z,41.60
2018-03-27T02:51:06.229Z,41.40
2018-03-27T02:53:34.298Z,41.40
2018-03-27T02:56:02.292Z,41.40
2018-03-27T02:58:30.401Z,41.50
2018-03-27T03:00:58.422Z,41.50
2018-03-27T03:03:27.144Z,41.60
2018-03-27T03:05:55.094Z,41.60
2018-03-27T03:08:23.067Z,41.60
2018-03-27T03:10:51.116Z,41.60
2018-03-27T03:13:19.790Z,41.90
2018-03-27T03:15:47.817Z,41.80
2018-03-27T03:18:15.841Z,41.90
2018-03-27T03:20:44.575Z,42.20
2018-03-27T03:23:12.527Z,42.20
2018-03-27T03:25:40.577Z,42.30
2018-03-27T03:28:09.315Z,42.50
2018-03-27T03:30:37.250Z,42.50
2018-03-27T03:33:05.242Z,42.70
2018-03-27T03:35:33.175Z,42.80
2018-03-27T03:38:01.089Z,42.90
2018-03-27T03:40:29.049Z,42.90
2018-03-27T03:42:57.077Z,42.80
2018-03-27T03:45:25.825Z,42.70
2018-03-27T03:47:53.845Z,42.80
2018-03-27T03:50:21.852Z,42.70
2018-03-27T03:52:49.816Z,42.80
2018-03-27T03:55:17.840Z,42.80
2018-03-27T03:57:46.626Z,42.90
2018-03-27T04:00:15.433Z,42.90
2018-03-27T04:02:43.424Z,42.90
2018-03-27T04:05:11.370Z,43.00
2018-03-27T04:07:39.293Z,43.00
2018-03-27T04:10:07.344Z,43.00
2018-03-27T04:12:35.291Z,43.00
2018-03-27T04:15:03.269Z,43.00
2018-03-27T04:17:31.209Z,43.10
2018-03-27T04:19:59.183Z,43.10
2018-03-27T04:22:27.117Z,43.10
2018-03-27T04:24:55.139Z,43.10
2018-03-27T04:27:23.086Z,43.20
2018-03-27T04:29:51.054Z,43.20
2018-03-27T04:32:19.039Z,43.30
2018-03-27T04:34:47.053Z,43.30
2018-03-27T04:37:15.066Z,43.40
2018-03-27T04:39:43.074Z,43.50
2018-03-27T04:42:11.156Z,43.40
2018-03-27T04:44:39.103Z,43.40
2018-03-27T04:47:07.865Z,43.50
2018-03-27T04:49:35.802Z,43.50
2018-03-27T04:52:04.622Z,43.50
2018-03-27T04:54:32.670Z,43.60
2018-03-27T04:57:01.466Z,43.60
2018-03-27T04:59:29.469Z,43.60
2018-03-27T05:01:57.431Z,43.60
2018-03-27T05:04:25.374Z,43.70
2018-03-27T05:06:53.313Z,43.90
2018-03-27T05:09:22.026Z,44.00
2018-03-27T05:11:50.736Z,44.00
2018-03-27T05:14:18.668Z,44.00
2018-03-27T05:16:47.405Z,44.10
2018-03-27T05:19:15.360Z,44.00
2018-03-27T05:21:43.330Z,44.10
2018-03-27T05:24:11.281Z,44.10
2018-03-27T05:26:39.212Z,44.20
2018-03-27T05:29:07.175Z,44.30
2018-03-27T05:31:35.213Z,44.30
2018-03-27T05:34:03.122Z,44.30
2018-03-27T05:36:31.075Z,44.40
2018-03-27T05:38:59.035Z,44.80
2018-03-27T05:41:27.046Z,44.50
2018-03-27T05:43:55.768Z,44.50
2018-03-27T05:46:23.725Z,44.50
2018-03-27T05:48:51.667Z,44.60
2018-03-27T05:51:20.368Z,44.80
2018-03-27T05:53:48.394Z,44.70
2018-03-27T05:56:16.331Z,44.70
2018-03-27T05:58:44.392Z,44.80
2018-03-27T06:01:12.427Z,44.90
2018-03-27T06:03:41.210Z,45.10
2018-03-27T06:06:09.952Z,45.10
2018-03-27T06:08:38.741Z,45.10
2018-03-27T06:11:06.679Z,45.10
2018-03-27T06:13:34.692Z,45.10
2018-03-27T06:16:02.747Z,45.20
2018-03-27T06:18:30.708Z,45.30
2018-03-27T06:20:58.664Z,45.30
2018-03-27T06:23:26.702Z,45.40
2018-03-27T06:25:55.499Z,45.40
2018-03-27T06:28:24.201Z,45.40
2018-03-27T06:30:52.176Z,45.40
2018-03-27T06:33:20.134Z,45.40
2018-03-27T06:35:48.052Z,45.40
2018-03-27T06:38:15.994Z,45.50
2018-03-27T06:40:44.007Z,45.50
2018-03-27T06:43:11.966Z,45.40
2018-03-27T06:45:39.922Z,45.40
2018-03-27T06:48:07.834Z,45.20
2018-03-27T06:50:36.565Z,45.10
2018-03-27T06:53:04.552Z,45.10
2018-03-27T06:55:32.495Z,45.10
2018-03-27T06:58:00.462Z,45.10
2018-03-27T07:00:28.431Z,45.10
2018-03-27T07:02:56.403Z,44.20
2018-03-27T07:05:24.427Z,44.20
2018-03-27T07:07:52.390Z,44.10
2018-03-27T07:10:21.093Z,44.00
2018-03-27T07:12:49.141Z,43.90
2018-03-27T07:15:17.834Z,43.80
2018-03-27T07:17:45.809Z,43.80
2018-03-27T07:20:14.611Z,43.60
2018-03-27T07:22:42.615Z,43.70
2018-03-27T07:25:10.588Z,43.60
2018-03-27T07:27:38.646Z,43.50
2018-03-27T07:30:07.091Z,43.50
2018-03-27T07:32:35.134Z,43.50
2018-03-27T07:35:03.863Z,43.40
2018-03-27T07:37:31.854Z,43.40
2018-03-27T07:39:59.829Z,43.20
2018-03-27T07:42:27.778Z,43.20
2018-03-27T07:44:55.806Z,43.20
2018-03-27T07:47:24.573Z,43.00
2018-03-27T07:49:52.515Z,43.00
2018-03-27T07:52:20.434Z,42.90
2018-03-27T07:54:49.298Z,43.60
2018-03-27T07:57:17.326Z,43.00
2018-03-27T07:59:45.329Z,43.00
2018-03-27T08:02:13.433Z,43.00
2018-03-27T08:04:41.363Z,42.90
2018-03-27T08:07:09.309Z,42.60
2018-03-27T08:09:37.331Z,42.30
2018-03-27T08:12:05.270Z,42.40
2018-03-27T08:14:33.234Z,42.40
2018-03-27T08:17:01.204Z,42.30
2018-03-27T08:19:29.172Z,42.10
2018-03-27T08:21:57.114Z,42.10
2018-03-27T08:24:25.102Z,42.10
2018-03-27T08:26:53.125Z,42.20
2018-03-27T08:29:21.930Z,42.30
2018-03-27T08:31:49.938Z,42.10
2018-03-27T08:34:17.862Z,42.20
2018-03-27T08:36:46.562Z,42.50
2018-03-27T08:39:14.558Z,42.50
2018-03-27T08:41:42.513Z,42.70
2018-03-27T08:44:10.628Z,42.70
2018-03-27T08:46:38.614Z,42.70
2018-03-27T08:49:07.351Z,42.70
2018-03-27T08:51:35.346Z,42.60
2018-03-27T08:54:03.438Z,42.70
2018-03-27T08:56:31.377Z,42.60
2018-03-27T08:58:59.348Z,42.50
2018-03-27T09:01:27.315Z,42.30
2018-03-27T09:03:55.353Z,42.10
2018-03-27T09:06:23.319Z,42.00
2018-03-27T09:08:51.349Z,41.90
2018-03-27T09:11:19.390Z,41.70
2018-03-27T09:13:47.354Z,41.60
2018-03-27T09:16:15.317Z,41.30
2018-03-27T09:18:43.722Z,41.20
2018-03-27T09:21:11.711Z,41.20
2018-03-27T09:23:39.754Z,41.10
2018-03-27T09:26:07.729Z,40.80
2018-03-27T09:28:35.766Z,40.50
2018-03-27T09:31:03.702Z,40.30
2018-03-27T09:33:32.422Z,39.90
2018-03-27T09:36:00.375Z,39.80
2018-03-27T09:38:28.375Z,39.60
2018-03-27T09:40:56.326Z,39.40
2018-03-27T09:43:24.334Z,39.10
2018-03-27T09:45:52.330Z,38.80
2018-03-27T09:48:21.099Z,38.10
2018-03-27T09:50:49.179Z,38.10
2018-03-27T09:53:17.881Z,37.60
2018-03-27T09:55:46.636Z,37.20
2018-03-27T09:58:14.579Z,37.20
2018-03-27T10:00:48.184Z,36.80
2018-03-27T10:03:16.163Z,36.50
2018-03-27T10:05:44.199Z,36.20
2018-03-27T10:08:12.238Z,36.00
2018-03-27T10:10:40.972Z,35.80
2018-03-27T10:13:08.924Z,35.80
2018-03-27T10:15:36.848Z,35.70
2018-03-27T10:18:05.378Z,35.40
2018-03-27T10:20:33.312Z,34.80
2018-03-27T10:23:02.090Z,34.20
2018-03-27T10:25:30.815Z,33.80
2018-03-27T10:27:58.841Z,33.70
2018-03-27T10:30:26.747Z,33.50
2018-03-27T10:32:54.719Z,33.20
2018-03-27T10:35:22.790Z,33.00
2018-03-27T10:37:50.756Z,32.90
2018-03-27T10:40:18.732Z,32.50
2018-03-27T10:42:46.705Z,32.10
2018-03-27T10:45:14.642Z,31.70
2018-03-27T10:47:43.341Z,30.90
2018-03-27T10:50:11.314Z,30.90
2018-03-27T10:52:39.259Z,30.60
2018-03-27T10:55:07.970Z,30.00
2018-03-27T10:57:36.788Z,29.90
2018-03-27T11:00:05.023Z,29.80
2018-03-27T11:02:32.947Z,29.70
2018-03-27T11:05:00.893Z,29.50
2018-03-27T11:07:28.854Z,29.30
2018-03-27T11:09:56.785Z,29.20
2018-03-27T11:12:25.578Z,28.80
2018-03-27T11:14:54.337Z,28.70
2018-03-27T11:17:22.308Z,28.60
2018-03-27T11:19:50.331Z,28.40
2018-03-27T11:22:18.334Z,27.90
2018-03-27T11:24:46.274Z,27.50
2018-03-27T11:27:14.389Z,27.20
2018-03-27T11:29:42.320Z,26.70
2018-03-27T11:32:10.349Z,26.60
2018-03-27T11:34:39.053Z,26.10
2018-03-27T11:37:06.999Z,26.10
2018-03-27T11:39:35.728Z,25.70
2018-03-27T11:42:03.697Z,25.60
2018-03-27T11:44:31.709Z,25.60
2018-03-27T11:46:59.638Z,25.40
2018-03-27T11:49:27.650Z,25.30
2018-03-27T11:51:56.342Z,24.50
2018-03-27T11:54:25.092Z,24.10
2018-03-27T11:56:53.022Z,24.10
2018-03-27T11:59:21.047Z,23.90
2018-03-27T12:01:48.999Z,23.50
2018-03-27T12:04:16.954Z,23.20
2018-03-27T12:06:45.566Z,23.00
2018-03-27T12:09:14.355Z,22.70
2018-03-27T12:11:42.370Z,22.70
2018-03-27T12:14:10.390Z,22.70
2018-03-27T12:16:38.297Z,22.80
2018-03-27T12:19:06.327Z,22.60
2018-03-27T12:21:34.369Z,22.60
2018-03-27T12:24:02.406Z,22.70
2018-03-27T12:26:30.330Z,22.50
2018-03-27T12:28:58.390Z,22.10
2018-03-27T12:31:26.506Z,22.00
2018-03-27T12:33:55.286Z,21.80
2018-03-27T12:36:24.021Z,21.70
2018-03-27T12:38:52.335Z,21.70
2018-03-27T12:41:20.346Z,21.60
2018-03-27T12:43:48.310Z,21.40
2018-03-27T12:46:16.262Z,21.30
2018-03-27T12:48:45.122Z,21.00
2018-03-27T12:51:13.141Z,20.90
2018-03-27T12:53:41.154Z,20.80
2018-03-27T12:56:09.082Z,20.60
2018-03-27T12:58:37.037Z,20.40
2018-03-27T13:01:05.851Z,19.80
2018-03-27T13:03:33.890Z,19.80
2018-03-27T13:06:02.590Z,20.10
2018-03-27T13:08:30.653Z,20.00
2018-03-27T13:10:59.523Z,19.90
2018-03-27T13:13:27.438Z,19.90
2018-03-27T13:15:55.447Z,19.90
2018-03-27T13:18:23.503Z,20.00
2018-03-27T13:20:51.536Z,19.90
2018-03-27T13:23:19.557Z,19.90
2018-03-27T13:25:47.502Z,20.10
2018-03-27T13:28:15.462Z,20.40
2018-03-27T13:30:43.385Z,20.30
2018-03-27T13:33:12.086Z,20.40
2018-03-27T13:35:40.110Z,20.30
2018-03-27T13:38:08.098Z,20.50
2018-03-27T13:40:36.131Z,20.80
2018-03-27T13:43:04.153Z,21.60
2018-03-27T13:45:32.972Z,21.50
2018-03-27T13:48:00.997Z,21.50
2018-03-27T13:50:29.784Z,22.10
2018-03-27T13:52:57.815Z,22.10
2018-03-27T13:55:25.781Z,22.40
2018-03-27T13:57:53.747Z,22.60
2018-03-27T14:00:21.796Z,22.90
2018-03-27T14:02:49.772Z,23.40
2018-03-27T14:05:17.789Z,22.90
2018-03-27T14:07:45.716Z,22.80
2018-03-27T14:10:13.648Z,22.80
2018-03-27T14:12:42.400Z,22.40
2018-03-27T14:15:10.423Z,22.40
2018-03-27T14:17:38.479Z,22.30
2018-03-27T14:20:07.248Z,22.40
2018-03-27T14:22:35.197Z,22.40
2018-03-27T14:25:03.154Z,22.40
2018-03-27T14:27:31.155Z,22.60
2018-03-27T14:29:59.138Z,22.90
2018-03-27T14:32:27.840Z,23.10
2018-03-27T14:34:55.896Z,23.00
2018-03-27T14:37:24.692Z,23.30
2018-03-27T14:39:53.409Z,23.40
2018-03-27T14:42:21.402Z,23.40
2018-03-27T14:44:49.451Z,23.60
2018-03-27T14:47:17.578Z,24.00
2018-03-27T14:49:46.304Z,23.50
2018-03-27T14:52:14.355Z,23.50
2018-03-27T14:54:42.467Z,23.60
2018-03-27T14:57:10.645Z,23.60
2018-03-27T14:59:38.590Z,23.50
2018-03-27T15:02:06.625Z,23.50
2018-03-27T15:04:35.373Z,23.60
2018-03-27T15:07:03.302Z,23.50
2018-03-27T15:09:31.321Z,23.60
2018-03-27T15:11:59.266Z,23.90
2018-03-27T15:14:27.178Z,24.00
2018-03-27T15:16:55.965Z,23.50
2018-03-27T15:19:23.978Z,23.50
2018-03-27T15:21:51.921Z,23.50
2018-03-27T15:24:20.684Z,23.70
2018-03-27T15:26:48.644Z,23.70
2018-03-27T15:29:16.662Z,23.80
2018-03-27T15:31:44.772Z,23.80
2018-03-27T15:34:12.728Z,23.90
2018-03-27T15:36:40.751Z,24.20
2018-03-27T15:39:09.513Z,24.90
2018-03-27T15:41:37.618Z,24.80
2018-03-27T15:44:05.734Z,24.90
2018-03-27T15:46:33.758Z,25.10
2018-03-27T15:49:02.450Z,25.40
2018-03-27T15:51:30.386Z,25.30
2018-03-27T15:53:58.379Z,25.40
2018-03-27T15:56:27.050Z,25.80
2018-03-27T15:58:55.812Z,25.90
2018-03-27T16:01:23.769Z,25.90
2018-03-27T16:03:51.788Z,26.10
2018-03-27T16:06:20.676Z,26.60
2018-03-27T16:08:49.476Z,26.90
2018-03-27T16:11:17.546Z,26.80
2018-03-27T16:13:45.619Z,26.90
2018-03-27T16:16:13.760Z,27.00
2018-03-27T16:18:41.978Z,27.10
2018-03-27T16:21:10.175Z,27.20
2018-03-27T16:23:38.345Z,27.50
2018-03-27T16:26:06.678Z,27.60
2018-03-27T16:28:34.957Z,27.70
2018-03-27T16:31:03.846Z,28.00
2018-03-27T16:33:32.856Z,28.20
2018-03-27T16:36:01.000Z,28.20
2018-03-27T16:38:30.024Z,28.60
2018-03-27T16:40:58.320Z,28.50
2018-03-27T16:43:26.527Z,28.70
2018-03-27T16:45:54.702Z,29.20
2018-03-27T16:48:23.060Z,28.90
2018-03-27T16:50:51.262Z,29.00
2018-03-27T16:53:19.465Z,29.20
2018-03-27T16:55:47.804Z,29.40
2018-03-27T16:58:16.086Z,29.50
2018-03-27T17:00:44.361Z,29.80
2018-03-27T17:03:12.655Z,30.00
2018-03-27T17:05:41.706Z,30.60
2018-03-27T17:08:09.931Z,30.50
2018-03-27T17:10:38.990Z,31.20
2018-03-27T17:13:07.308Z,31.20
2018-03-27T17:15:36.413Z,31.70
2018-03-27T17:18:04.648Z,31.70
2018-03-27T17:20:32.997Z,31.90
2018-03-27T17:23:01.261Z,32.20
2018-03-27T17:25:30.211Z,32.40
2018-03-27T17:27:59.862Z,32.90
2018-03-27T17:30:28.124Z,32.90
2018-03-27T17:32:56.419Z,33.20
2018-03-27T17:35:24.705Z,33.40
2018-03-27T17:37:52.964Z,33.70
2018-03-27T17:40:21.285Z,33.80
2018-03-27T17:42:49.599Z,34.00
2018-03-27T17:45:17.900Z,34.10
2018-03-27T17:47:46.187Z,34.30
2018-03-27T17:50:15.285Z,34.80
2018-03-27T17:52:45.356Z,34.90
2018-03-27T17:55:14.461Z,34.90
2018-03-27T17:57:42.793Z,35.00
2018-03-27T18:00:11.044Z,35.00
2018-03-27T18:02:39.402Z,35.20
2018-03-27T18:05:07.722Z,35.30
2018-03-27T18:07:36.000Z,35.20
2018-03-27T18:10:04.393Z,35.40
2018-03-27T18:12:33.448Z,35.90
2018-03-27T18:15:03.807Z,35.80
2018-03-27T18:17:32.253Z,36.10
2018-03-27T18:20:00.548Z,36.30
2018-03-27T18:22:28.834Z,36.60
2018-03-27T18:24:57.104Z,36.70
2018-03-27T18:27:25.391Z,36.80
2018-03-27T18:29:53.645Z,37.00
2018-03-27T18:32:21.903Z,37.10
2018-03-27T18:34:51.050Z,37.10
2018-03-27T18:37:21.032Z,37.40
2018-03-27T18:39:49.296Z,37.30
2018-03-27T18:42:17.610Z,37.40
2018-03-27T18:44:46.641Z,37.40
2018-03-27T18:47:14.915Z,37.40
2018-03-27T18:49:43.315Z,37.40
2018-03-27T18:52:11.603Z,37.40
2018-03-27T18:54:39.955Z,37.50
2018-03-27T18:57:08.350Z,37.70
2018-03-27T18:59:36.607Z,37.80
2018-03-27T19:02:05.055Z,37.90
2018-03-27T19:04:34.135Z,38.20
2018-03-27T19:07:02.467Z,38.10
2018-03-27T19:09:30.810Z,38.30
2018-03-27T19:11:59.859Z,38.50
2018-03-27T19:14:28.106Z,38.50
2018-03-27T19:16:56.396Z,38.70
2018-03-27T19:19:24.751Z,38.80
2018-03-27T19:21:53.024Z,38.90
2018-03-27T19:24:21.309Z,39.10
2018-03-27T19:26:49.786Z,39.20
2018-03-27T19:29:18.136Z,39.30
2018-03-27T19:31:47.210Z,39.50
2018-03-27T19:34:15.527Z,39.50
2018-03-27T19:36:43.935Z,39.60
2018-03-27T19:39:12.263Z,39.60
2018-03-27T19:41:41.418Z,40.00
2018-03-27T19:44:09.772Z,39.90
2018-03-27T19:46:38.142Z,40.00
2018-03-27T19:49:06.440Z,40.10
2018-03-27T19:51:34.732Z,40.20
2018-03-27T19:54:03.009Z,40.30
2018-03-27T19:56:31.280Z,40.30
2018-03-27T19:58:59.535Z,40.40
2018-03-27T20:01:27.810Z,40.40
2018-03-27T20:03:56.963Z,40.40
2018-03-27T20:06:26.039Z,40.30
2018-03-27T20:08:54.307Z,40.30
2018-03-27T20:11:23.535Z,40.00
2018-03-27T20:13:52.660Z,39.70
2018-03-27T20:16:20.916Z,39.70
2018-03-27T20:18:49.948Z,39.40
2018-03-27T20:21:18.252Z,39.40
2018-03-27T20:23:46.539Z,39.30
2018-03-27T20:26:14.851Z,39.20
2018-03-27T20:28:43.683Z,39.10
2018-03-27T20:31:12.819Z,39.00
2018-03-27T20:33:41.875Z,39.00
2018-03-27T20:36:10.166Z,39.00
2018-03-27T20:38:38.393Z,38.90
2018-03-27T20:41:07.164Z,39.00
2018-03-27T20:43:36.774Z,39.00
2018-03-27T20:46:06.262Z,39.00
2018-03-27T20:48:35.770Z,39.00
2018-03-27T20:51:05.194Z,39.00
2018-03-27T20:53:33.874Z,39.00
2018-03-27T20:56:03.768Z,39.00
2018-03-27T20:58:33.301Z,39.00
2018-03-27T21:01:02.413Z,39.00
2018-03-27T21:03:31.688Z,39.00
2018-03-27T21:06:01.295Z,39.60
2018-03-27T21:08:30.999Z,39.00
2018-03-27T21:11:00.120Z,39.00
2018-03-27T21:13:29.687Z,39.00
2018-03-27T21:15:59.326Z,39.00
2018-03-27T21:18:28.918Z,39.00
2018-03-27T21:20:58.410Z,39.00
2018-03-27T21:23:27.911Z,39.00
2018-03-27T21:25:57.306Z,39.00
2018-03-27T21:28:26.907Z,39.00
2018-03-27T21:30:55.177Z,39.00
2018-03-27T21:33:23.348Z,39.00
2018-03-27T21:35:51.524Z,39.00
2018-03-27T21:38:19.694Z,39.00
2018-03-27T21:40:47.703Z,39.00
2018-03-27T21:43:15.835Z,39.00
2018-03-27T21:45:44.007Z,39.10
2018-03-27T21:48:12.293Z,39.10
2018-03-27T21:50:40.574Z,39.10
2018-03-27T21:53:09.449Z,39.60
2018-03-27T21:55:38.236Z,39.10
2018-03-27T21:58:06.416Z,39.10
2018-03-27T22:00:34.379Z,39.20
2018-03-27T22:03:02.666Z,39.10
2018-03-27T22:05:31.557Z,39.10
2018-03-27T22:07:59.718Z,39.20
2018-03-27T22:10:27.892Z,39.30
2018-03-27T22:12:56.065Z,39.30
2018-03-27T22:15:24.353Z,39.30
2018-03-27T22:17:52.515Z,39.40
2018-03-27T22:20:20.688Z,39.30
2018-03-27T22:22:48.760Z,39.40
2018-03-27T22:25:16.938Z,39.40
2018-03-27T22:27:45.941Z,39.60
2018-03-27T22:30:14.105Z,39.50
2018-03-27T22:32:43.102Z,39.70
2018-03-27T22:35:11.987Z,39.60
2018-03-27T22:37:40.157Z,39.70
2018-03-27T22:40:08.444Z,39.70
2018-03-27T22:42:36.507Z,39.80
2018-03-27T22:45:04.894Z,40.30
2018-03-27T22:47:33.054Z,39.80
2018-03-27T22:50:01.239Z,39.90
2018-03-27T22:52:29.518Z,39.90
2018-03-27T22:54:58.612Z,40.70
2018-03-27T22:57:26.775Z,40.00
2018-03-27T22:59:55.663Z,40.70
2018-03-27T23:02:23.836Z,40.10
2018-03-27T23:04:52.015Z,40.10
2018-03-27T23:07:20.296Z,40.20
2018-03-27T23:09:48.460Z,40.20
2018-03-27T23:12:16.636Z,40.30
2018-03-27T23:14:44.810Z,40.30
2018-03-27T23:17:12.980Z,40.40
2018-03-27T23:19:41.158Z,40.70
2018-03-27T23:22:09.544Z,40.90
2018-03-27T23:24:38.425Z,41.40
2018-03-27T23:27:06.710Z,41.50
2018-03-27T23:29:35.805Z,41.90
2018-03-27T23:32:04.899Z,42.00
2018-03-27T23:34:33.062Z,42.00
2018-03-27T23:37:01.235Z,42.20
2018-03-27T23:39:29.522Z,42.30
2018-03-27T23:41:57.670Z,42.40
2018-03-27T23:44:26.486Z,42.70
2018-03-27T23:46:54.652Z,42.70
2018-03-27T23:49:22.825Z,42.80
2018-03-27T23:51:50.992Z,43.50
2018-03-27T23:54:20.100Z,42.80
2018-03-27T23:56:48.980Z,44.50
2018-03-27T23:59:17.156Z,44.20
